sensor_id;sensor_type;location;lat;lon;timestamp;pressure;altitude;pressure_sealevel;temperature;humidity
52535;BME280;38443;53.164;5.802;2023-02-15T00:01:30;103146.53;;;-0.51;100.00
52535;BME280;38443;53.164;5.802;2023-02-15T00:03:55;103140.94;;;-0.57;100.00
52535;BME280;38443;53.164;5.802;2023-02-15T00:06:21;103145.34;;;-0.56;100.00
52535;BME280;38443;53.164;5.802;2023-02-15T00:08:46;103148.72;;;-0.59;100.00
52535;BME280;38443;53.164;5.802;2023-02-15T00:11:14;103138.88;;;-0.63;100.00
52535;BME280;38443;53.164;5.802;2023-02-15T00:13:40;103139.63;;;-0.66;100.00
52535;BME280;38443;53.164;5.802;2023-02-15T00:16:12;103145.03;;;-0.63;100.00
52535;BME280;38443;53.164;5.802;2023-02-15T00:18:39;103144.13;;;-0.63;100.00
52535;BME280;38443;53.164;5.802;2023-02-15T00:21:07;103142.41;;;-0.63;100.00
52535;BME280;38443;53.164;5.802;2023-02-15T00:23:33;103144.69;;;-0.69;100.00
52535;BME280;38443;53.164;5.802;2023-02-15T00:26:08;103140.50;;;-0.82;100.00
52535;BME280;38443;53.164;5.802;2023-02-15T00:28:34;103143.72;;;-0.87;100.00
52535;BME280;38443;53.164;5.802;2023-02-15T00:31:06;103135.91;;;-0.86;100.00
52535;BME280;38443;53.164;5.802;2023-02-15T00:33:32;103134.28;;;-0.84;100.00
52535;BME280;38443;53.164;5.802;2023-02-15T00:35:57;103128.13;;;-0.84;100.00
52535;BME280;38443;53.164;5.802;2023-02-15T00:38:23;103115.88;;;-0.84;100.00
52535;BME280;38443;53.164;5.802;2023-02-15T00:40:52;103117.25;;;-0.90;100.00
52535;BME280;38443;53.164;5.802;2023-02-15T00:43:18;103114.69;;;-0.89;100.00
52535;BME280;38443;53.164;5.802;2023-02-15T00:45:44;103113.72;;;-0.91;100.00
52535;BME280;38443;53.164;5.802;2023-02-15T00:48:09;103119.97;;;-0.89;100.00
52535;BME280;38443;53.164;5.802;2023-02-15T00:50:35;103106.47;;;-0.95;100.00
52535;BME280;38443;53.164;5.802;2023-02-15T00:53:00;103104.41;;;-1.01;100.00
52535;BME280;38443;53.164;5.802;2023-02-15T00:55:25;103104.75;;;-1.11;100.00
52535;BME280;38443;53.164;5.802;2023-02-15T00:57:51;103097.25;;;-1.19;100.00
52535;BME280;38443;53.164;5.802;2023-02-15T01:00:16;103100.53;;;-1.24;100.00
52535;BME280;38443;53.164;5.802;2023-02-15T01:02:41;103104.81;;;-1.26;100.00
52535;BME280;38443;53.164;5.802;2023-02-15T01:05:06;103101.19;;;-1.28;100.00
52535;BME280;38443;53.164;5.802;2023-02-15T01:07:32;103094.06;;;-1.30;100.00
52535;BME280;38443;53.164;5.802;2023-02-15T01:09:57;103104.38;;;-1.33;100.00
52535;BME280;38443;53.164;5.802;2023-02-15T01:12:22;103096.31;;;-1.36;100.00
52535;BME280;38443;53.164;5.802;2023-02-15T01:14:48;103094.31;;;-1.41;100.00
52535;BME280;38443;53.164;5.802;2023-02-15T01:17:13;103098.78;;;-1.39;100.00
52535;BME280;38443;53.164;5.802;2023-02-15T01:19:38;103095.97;;;-1.43;100.00
52535;BME280;38443;53.164;5.802;2023-02-15T01:22:03;103087.19;;;-1.43;100.00
52535;BME280;38443;53.164;5.802;2023-02-15T01:24:29;103092.94;;;-1.50;100.00
52535;BME280;38443;53.164;5.802;2023-02-15T01:26:54;103092.84;;;-1.52;100.00
52535;BME280;38443;53.164;5.802;2023-02-15T01:29:19;103090.13;;;-1.53;100.00
52535;BME280;38443;53.164;5.802;2023-02-15T01:31:45;103090.31;;;-1.50;100.00
52535;BME280;38443;53.164;5.802;2023-02-15T01:34:10;103089.38;;;-1.51;100.00
52535;BME280;38443;53.164;5.802;2023-02-15T01:36:35;103079.06;;;-1.48;100.00
52535;BME280;38443;53.164;5.802;2023-02-15T01:39:01;103088.03;;;-1.44;100.00
52535;BME280;38443;53.164;5.802;2023-02-15T01:41:26;103072.97;;;-1.47;100.00
52535;BME280;38443;53.164;5.802;2023-02-15T01:43:56;103063.84;;;-1.53;100.00
52535;BME280;38443;53.164;5.802;2023-02-15T01:46:27;103054.16;;;-1.54;100.00
52535;BME280;38443;53.164;5.802;2023-02-15T01:48:58;103051.38;;;-1.57;100.00
52535;BME280;38443;53.164;5.802;2023-02-15T01:51:27;103055.72;;;-1.58;100.00
52535;BME280;38443;53.164;5.802;2023-02-15T01:54:08;103053.00;;;-1.59;100.00
52535;BME280;38443;53.164;5.802;2023-02-15T01:56:38;103043.06;;;-1.65;100.00
52535;BME280;38443;53.164;5.802;2023-02-15T01:59:09;103055.19;;;-1.67;100.00
52535;BME280;38443;53.164;5.802;2023-02-15T02:01:37;103049.84;;;-1.69;100.00
52535;BME280;38443;53.164;5.802;2023-02-15T02:04:15;103042.47;;;-1.76;100.00
52535;BME280;38443;53.164;5.802;2023-02-15T02:06:44;103037.13;;;-1.77;100.00
52535;BME280;38443;53.164;5.802;2023-02-15T02:09:11;103031.78;;;-1.79;100.00
52535;BME280;38443;53.164;5.802;2023-02-15T02:11:38;103029.91;;;-1.82;100.00
52535;BME280;38443;53.164;5.802;2023-02-15T02:14:06;103027.19;;;-1.83;100.00
52535;BME280;38443;53.164;5.802;2023-02-15T02:22:23;103015.72;;;-2.00;100.00
52535;BME280;38443;53.164;5.802;2023-02-15T02:27:39;103005.53;;;-2.10;100.00
52535;BME280;38443;53.164;5.802;2023-02-15T02:36:04;102999.28;;;-2.12;100.00
52535;BME280;38443;53.164;5.802;2023-02-15T02:43:56;103001.97;;;-2.11;100.00
52535;BME280;38443;53.164;5.802;2023-02-15T02:46:32;103003.81;;;-2.10;100.00
52535;BME280;38443;53.164;5.802;2023-02-15T02:49:00;103004.06;;;-2.05;100.00
52535;BME280;38443;53.164;5.802;2023-02-15T02:51:27;102995.28;;;-2.06;100.00
52535;BME280;38443;53.164;5.802;2023-02-15T02:53:55;102994.41;;;-2.06;100.00
52535;BME280;38443;53.164;5.802;2023-02-15T02:56:43;102989.06;;;-2.08;100.00
52535;BME280;38443;53.164;5.802;2023-02-15T02:59:17;102994.41;;;-2.06;100.00
52535;BME280;38443;53.164;5.802;2023-02-15T03:02:16;102982.06;;;-2.07;100.00
52535;BME280;38443;53.164;5.802;2023-02-15T03:04:49;102985.69;;;-2.05;100.00
52535;BME280;38443;53.164;5.802;2023-02-15T03:07:25;102983.97;;;-2.05;100.00
52535;BME280;38443;53.164;5.802;2023-02-15T03:09:54;102981.28;;;-2.06;100.00
52535;BME280;38443;53.164;5.802;2023-02-15T03:12:28;102981.28;;;-2.06;100.00
52535;BME280;38443;53.164;5.802;2023-02-15T03:15:02;102970.78;;;-2.06;100.00
52535;BME280;38443;53.164;5.802;2023-02-15T03:17:32;102973.41;;;-2.06;100.00
52535;BME280;38443;53.164;5.802;2023-02-15T03:20:01;102970.59;;;-2.09;100.00
52535;BME280;38443;53.164;5.802;2023-02-15T03:22:33;102966.97;;;-2.11;100.00
52535;BME280;38443;53.164;5.802;2023-02-15T03:25:20;102976.66;;;-2.10;100.00
52535;BME280;38443;53.164;5.802;2023-02-15T03:27:53;102976.66;;;-2.10;100.00
52535;BME280;38443;53.164;5.802;2023-02-15T03:30:21;102960.09;;;-2.09;100.00
52535;BME280;38443;53.164;5.802;2023-02-15T03:32:49;102950.59;;;-2.07;100.00
52535;BME280;38443;53.164;5.802;2023-02-15T03:35:16;102960.19;;;-2.08;100.00
52535;BME280;38443;53.164;5.802;2023-02-15T03:37:43;102953.22;;;-2.07;100.00
52535;BME280;38443;53.164;5.802;2023-02-15T03:40:32;102961.09;;;-2.07;100.00
52535;BME280;38443;53.164;5.802;2023-02-15T03:43:48;102954.06;;;-2.08;100.00
52535;BME280;38443;53.164;5.802;2023-02-15T03:46:36;102952.31;;;-2.08;100.00
52535;BME280;38443;53.164;5.802;2023-02-15T03:49:12;102952.31;;;-2.08;100.00
52535;BME280;38443;53.164;5.802;2023-02-15T03:51:41;102946.19;;;-2.08;100.00
52535;BME280;38443;53.164;5.802;2023-02-15T03:54:19;102948.53;;;-2.13;100.00
52535;BME280;38443;53.164;5.802;2023-02-15T03:57:07;102940.41;;;-2.17;100.00
52535;BME280;38443;53.164;5.802;2023-02-15T03:59:53;102937.78;;;-2.17;100.00
52535;BME280;38443;53.164;5.802;2023-02-15T04:05:43;102921.16;;;-2.33;100.00
52535;BME280;38443;53.164;5.802;2023-02-15T04:08:10;102926.16;;;-2.37;100.00
52535;BME280;38443;53.164;5.802;2023-02-15T04:10:36;102927.69;;;-2.41;100.00
52535;BME280;38443;53.164;5.802;2023-02-15T04:13:32;102928.97;;;-2.49;100.00
52535;BME280;38443;53.164;5.802;2023-02-15T04:15:58;102927.81;;;-2.54;100.00
52535;BME280;38443;53.164;5.802;2023-02-15T04:21:19;102934.41;;;-2.61;100.00
52535;BME280;38443;53.164;5.802;2023-02-15T04:24:04;102935.03;;;-2.65;100.00
52535;BME280;38443;53.164;5.802;2023-02-15T04:26:47;102921.84;;;-2.67;100.00
52535;BME280;38443;53.164;5.802;2023-02-15T04:29:14;102931.53;;;-2.66;100.00
52535;BME280;38443;53.164;5.802;2023-02-15T04:31:40;102916.00;;;-2.63;100.00
52535;BME280;38443;53.164;5.802;2023-02-15T04:34:05;102924.09;;;-2.58;100.00
52535;BME280;38443;53.164;5.802;2023-02-15T04:36:30;102924.28;;;-2.55;100.00
52535;BME280;38443;53.164;5.802;2023-02-15T04:38:55;102920.75;;;-2.55;100.00
52535;BME280;38443;53.164;5.802;2023-02-15T04:41:21;102929.44;;;-2.56;100.00
52535;BME280;38443;53.164;5.802;2023-02-15T04:43:46;102918.78;;;-2.59;100.00
52535;BME280;38443;53.164;5.802;2023-02-15T04:46:11;102913.53;;;-2.59;100.00
52535;BME280;38443;53.164;5.802;2023-02-15T04:48:37;102912.44;;;-2.63;100.00
52535;BME280;38443;53.164;5.802;2023-02-15T04:51:08;102909.13;;;-2.61;100.00
52535;BME280;38443;53.164;5.802;2023-02-15T04:53:34;102904.66;;;-2.62;100.00
52535;BME280;38443;53.164;5.802;2023-02-15T04:56:00;102895.19;;;-2.59;100.00
52535;BME280;38443;53.164;5.802;2023-02-15T04:58:25;102905.75;;;-2.58;100.00
52535;BME280;38443;53.164;5.802;2023-02-15T05:00:54;102897.16;;;-2.55;100.00
52535;BME280;38443;53.164;5.802;2023-02-15T05:03:19;102893.53;;;-2.57;100.00
52535;BME280;38443;53.164;5.802;2023-02-15T05:05:45;102882.16;;;-2.58;100.00
52535;BME280;38443;53.164;5.802;2023-02-15T05:08:10;102897.16;;;-2.55;100.00
52535;BME280;38443;53.164;5.802;2023-02-15T05:10:35;102887.66;;;-2.53;100.00
52535;BME280;38443;53.164;5.802;2023-02-15T05:13:00;102885.03;;;-2.53;100.00
52535;BME280;38443;53.164;5.802;2023-02-15T05:15:26;102897.25;;;-2.54;100.00
52535;BME280;38443;53.164;5.802;2023-02-15T05:17:51;102890.28;;;-2.53;100.00
52535;BME280;38443;53.164;5.802;2023-02-15T05:20:16;102885.13;;;-2.52;100.00
52535;BME280;38443;53.164;5.802;2023-02-15T05:22:43;102882.50;;;-2.52;100.00
52535;BME280;38443;53.164;5.802;2023-02-15T05:25:09;102878.16;;;-2.51;100.00
52535;BME280;38443;53.164;5.802;2023-02-15T05:27:53;102880.00;;;-2.50;100.00
52535;BME280;38443;53.164;5.802;2023-02-15T05:30:37;102873.81;;;-2.51;100.00
52535;BME280;38443;53.164;5.802;2023-02-15T05:33:05;102880.03;;;-2.49;100.00
52535;BME280;38443;53.164;5.802;2023-02-15T05:35:31;102876.53;;;-2.49;100.00
52535;BME280;38443;53.164;5.802;2023-02-15T05:37:56;102874.00;;;-2.48;100.00
52535;BME280;38443;53.164;5.802;2023-02-15T05:40:22;102868.84;;;-2.46;100.00
52535;BME280;38443;53.164;5.802;2023-02-15T05:42:47;102870.75;;;-2.44;100.00
52535;BME280;38443;53.164;5.802;2023-02-15T05:45:12;102870.75;;;-2.44;100.00
52535;BME280;38443;53.164;5.802;2023-02-15T05:47:38;102871.72;;;-2.42;100.00
52535;BME280;38443;53.164;5.802;2023-02-15T05:50:04;102869.91;;;-2.43;100.00
52535;BME280;38443;53.164;5.802;2023-02-15T05:52:29;102865.69;;;-2.41;100.00
52535;BME280;38443;53.164;5.802;2023-02-15T05:54:54;102863.97;;;-2.40;100.00
52535;BME280;38443;53.164;5.802;2023-02-15T05:57:20;102867.81;;;-2.33;100.00
52535;BME280;38443;53.164;5.802;2023-02-15T05:59:45;102860.94;;;-2.31;100.00
52535;BME280;38443;53.164;5.802;2023-02-15T06:02:10;102867.34;;;-2.26;100.00
52535;BME280;38443;53.164;5.802;2023-02-15T06:04:36;102869.16;;;-2.25;100.00
52535;BME280;38443;53.164;5.802;2023-02-15T06:07:01;102856.28;;;-2.21;100.00
52535;BME280;38443;53.164;5.802;2023-02-15T06:09:27;102861.69;;;-2.17;100.00
52535;BME280;38443;53.164;5.802;2023-02-15T06:11:52;102862.78;;;-2.14;100.00
52535;BME280;38443;53.164;5.802;2023-02-15T06:14:17;102856.69;;;-2.13;100.00
52535;BME280;38443;53.164;5.802;2023-02-15T06:16:42;102854.16;;;-2.11;100.00
52535;BME280;38443;53.164;5.802;2023-02-15T06:19:08;102853.19;;;-2.13;100.00
52535;BME280;38443;53.164;5.802;2023-02-15T06:21:33;102849.56;;;-2.15;100.00
52535;BME280;38443;53.164;5.802;2023-02-15T06:23:58;102855.72;;;-2.15;100.00
52535;BME280;38443;53.164;5.802;2023-02-15T06:26:24;102850.47;;;-2.15;100.00
52535;BME280;38443;53.164;5.802;2023-02-15T06:28:49;102845.06;;;-2.18;100.00
52535;BME280;38443;53.164;5.802;2023-02-15T06:31:14;102846.16;;;-2.14;100.00
52535;BME280;38443;53.164;5.802;2023-02-15T06:33:40;102849.81;;;-2.11;100.00
52535;BME280;38443;53.164;5.802;2023-02-15T06:36:05;102850.66;;;-2.12;100.00
52535;BME280;38443;53.164;5.802;2023-02-15T06:38:31;102859.59;;;-2.08;100.00
52535;BME280;38443;53.164;5.802;2023-02-15T06:40:56;102857.22;;;-2.04;100.00
52535;BME280;38443;53.164;5.802;2023-02-15T06:43:22;102863.38;;;-2.03;100.00
52535;BME280;38443;53.164;5.802;2023-02-15T06:45:47;102873.22;;;-1.99;100.00
52535;BME280;38443;53.164;5.802;2023-02-15T06:48:13;102858.22;;;-2.02;100.00
52535;BME280;38443;53.164;5.802;2023-02-15T06:50:38;102852.22;;;-1.99;100.00
52535;BME280;38443;53.164;5.802;2023-02-15T06:53:03;102856.56;;;-1.99;100.00
52535;BME280;38443;53.164;5.802;2023-02-15T06:55:29;102861.06;;;-1.97;100.00
52535;BME280;38443;53.164;5.802;2023-02-15T06:57:54;102858.28;;;-2.00;100.00
52535;BME280;38443;53.164;5.802;2023-02-15T07:00:19;102858.03;;;-2.05;100.00
52535;BME280;38443;53.164;5.802;2023-02-15T07:02:47;102863.88;;;-2.10;100.00
52535;BME280;38443;53.164;5.802;2023-02-15T07:05:12;102857.34;;;-2.17;100.00
52535;BME280;38443;53.164;5.802;2023-02-15T07:07:37;102858.91;;;-2.21;100.00
52535;BME280;38443;53.164;5.802;2023-02-15T07:10:03;102845.63;;;-2.24;100.00
52535;BME280;38443;53.164;5.802;2023-02-15T07:12:29;102845.53;;;-2.25;100.00
52535;BME280;38443;53.164;5.802;2023-02-15T07:15:07;102845.44;;;-2.27;100.00
52535;BME280;38443;53.164;5.802;2023-02-15T07:17:34;102849.97;;;-2.24;100.00
52535;BME280;38443;53.164;5.802;2023-02-15T07:20:00;102853.66;;;-2.21;100.00
52535;BME280;38443;53.164;5.802;2023-02-15T07:22:25;102851.22;;;-2.17;100.00
52535;BME280;38443;53.164;5.802;2023-02-15T07:24:50;102846.16;;;-2.14;100.00
52535;BME280;38443;53.164;5.802;2023-02-15T07:27:19;102839.28;;;-2.12;100.00
52535;BME280;38443;53.164;5.802;2023-02-15T07:29:44;102842.03;;;-2.09;100.00
52535;BME280;38443;53.164;5.802;2023-02-15T07:32:10;102840.41;;;-2.07;100.00
52535;BME280;38443;53.164;5.802;2023-02-15T07:34:35;102835.41;;;-2.03;100.00
52535;BME280;38443;53.164;5.802;2023-02-15T07:37:00;102837.38;;;-1.98;100.00
52535;BME280;38443;53.164;5.802;2023-02-15T07:39:26;102836.81;;;-1.93;100.00
52535;BME280;38443;53.164;5.802;2023-02-15T07:41:51;102845.97;;;-1.85;100.00
52535;BME280;38443;53.164;5.802;2023-02-15T07:44:16;102843.63;;;-1.80;100.00
52535;BME280;38443;53.164;5.802;2023-02-15T07:46:42;102835.09;;;-1.76;100.00
52535;BME280;38443;53.164;5.802;2023-02-15T07:49:07;102836.41;;;-1.68;100.00
52535;BME280;38443;53.164;5.802;2023-02-15T07:51:33;102839.34;;;-1.62;100.00
52535;BME280;38443;53.164;5.802;2023-02-15T07:53:58;102836.16;;;-1.56;100.00
52535;BME280;38443;53.164;5.802;2023-02-15T07:56:24;102828.72;;;-1.47;100.00
52535;BME280;38443;53.164;5.802;2023-02-15T07:58:49;102823.13;;;-1.36;100.00
52535;BME280;38443;53.164;5.802;2023-02-15T08:01:30;102817.88;;;-1.20;100.00
52535;BME280;38443;53.164;5.802;2023-02-15T08:03:57;102822.16;;;-1.04;100.00
52535;BME280;38443;53.164;5.802;2023-02-15T08:06:24;102814.22;;;-0.88;100.00
52535;BME280;38443;53.164;5.802;2023-02-15T08:08:50;102816.16;;;-0.66;100.00
52535;BME280;38443;53.164;5.802;2023-02-15T08:14:16;102802.94;;;-0.12;100.00
52535;BME280;38443;53.164;5.802;2023-02-15T08:19:29;102798.00;;;0.35;100.00
52535;BME280;38443;53.164;5.802;2023-02-15T08:21:58;102792.97;;;0.61;100.00
52535;BME280;38443;53.164;5.802;2023-02-15T08:24:26;102790.41;;;0.83;100.00
52535;BME280;38443;53.164;5.802;2023-02-15T08:26:52;102789.88;;;1.13;100.00
52535;BME280;38443;53.164;5.802;2023-02-15T08:29:19;102780.06;;;1.31;100.00
52535;BME280;38443;53.164;5.802;2023-02-15T08:31:45;102783.56;;;1.53;100.00
52535;BME280;38443;53.164;5.802;2023-02-15T08:34:11;102771.34;;;1.55;100.00
52535;BME280;38443;53.164;5.802;2023-02-15T08:36:38;102773.59;;;1.68;100.00
52535;BME280;38443;53.164;5.802;2023-02-15T08:39:04;102765.44;;;1.62;100.00
52535;BME280;38443;53.164;5.802;2023-02-15T08:41:33;102766.47;;;1.66;100.00
52535;BME280;38443;53.164;5.802;2023-02-15T08:44:00;102755.91;;;1.66;100.00
52535;BME280;38443;53.164;5.802;2023-02-15T08:46:28;102759.44;;;1.66;100.00
52535;BME280;38443;53.164;5.802;2023-02-15T08:48:55;102753.78;;;1.79;100.00
52535;BME280;38443;53.164;5.802;2023-02-15T08:51:21;102749.81;;;1.91;100.00
52535;BME280;38443;53.164;5.802;2023-02-15T08:53:50;102740.75;;;2.08;100.00
52535;BME280;38443;53.164;5.802;2023-02-15T08:56:17;102739.06;;;2.10;100.00
52535;BME280;38443;53.164;5.802;2023-02-15T08:58:42;102745.13;;;2.08;100.00
52535;BME280;38443;53.164;5.802;2023-02-15T09:01:12;102751.88;;;1.99;100.00
52535;BME280;38443;53.164;5.802;2023-02-15T09:03:38;102742.28;;;2.02;100.00
52535;BME280;38443;53.164;5.802;2023-02-15T09:06:04;102748.44;;;2.02;100.00
52535;BME280;38443;53.164;5.802;2023-02-15T09:08:30;102749.41;;;2.04;100.00
52535;BME280;38443;53.164;5.802;2023-02-15T09:11:04;102743.16;;;2.02;100.00
52535;BME280;38443;53.164;5.802;2023-02-15T09:13:29;102735.47;;;2.08;100.00
52535;BME280;38443;53.164;5.802;2023-02-15T09:15:58;102742.88;;;2.18;100.00
52535;BME280;38443;53.164;5.802;2023-02-15T09:18:24;102731.81;;;2.29;100.00
52535;BME280;38443;53.164;5.802;2023-02-15T09:20:49;102729.41;;;2.36;100.00
52535;BME280;38443;53.164;5.802;2023-02-15T09:23:14;102732.50;;;2.49;100.00
52535;BME280;38443;53.164;5.802;2023-02-15T09:25:40;102736.47;;;2.62;100.00
52535;BME280;38443;53.164;5.802;2023-02-15T09:28:07;102736.88;;;2.74;100.00
52535;BME280;38443;53.164;5.802;2023-02-15T09:30:33;102745.31;;;2.89;100.00
52535;BME280;38443;53.164;5.802;2023-02-15T09:32:58;102735.03;;;2.98;100.00
52535;BME280;38443;53.164;5.802;2023-02-15T09:35:23;102736.41;;;3.14;100.00
52535;BME280;38443;53.164;5.802;2023-02-15T09:37:49;102732.31;;;3.24;100.00
52535;BME280;38443;53.164;5.802;2023-02-15T09:40:14;102733.56;;;3.35;100.00
52535;BME280;38443;53.164;5.802;2023-02-15T09:45:39;102731.09;;;3.42;100.00
52535;BME280;38443;53.164;5.802;2023-02-15T09:48:35;102720.81;;;3.51;100.00
52535;BME280;38443;53.164;5.802;2023-02-15T10:02:02;102727.13;;;3.86;100.00
52535;BME280;38443;53.164;5.802;2023-02-15T10:04:57;102722.88;;;3.91;100.00
52535;BME280;38443;53.164;5.802;2023-02-15T10:10:34;102723.28;;;4.07;100.00
52535;BME280;38443;53.164;5.802;2023-02-15T10:13:07;102730.66;;;4.18;100.00
52535;BME280;38443;53.164;5.802;2023-02-15T10:29:19;102718.31;;;4.52;100.00
52535;BME280;38443;53.164;5.802;2023-02-15T10:32:09;102710.56;;;4.60;100.00
52535;BME280;38443;53.164;5.802;2023-02-15T10:34:45;102713.38;;;4.66;100.00
52535;BME280;38443;53.164;5.802;2023-02-15T10:42:57;102703.06;;;4.78;100.00
52535;BME280;38443;53.164;5.802;2023-02-15T10:45:39;102705.91;;;4.86;100.00
52535;BME280;38443;53.164;5.802;2023-02-15T10:59:41;102683.66;;;5.17;100.00
52535;BME280;38443;53.164;5.802;2023-02-15T11:07:40;102670.88;;;5.40;100.00
52535;BME280;38443;53.164;5.802;2023-02-15T11:12:40;102667.75;;;5.60;100.00
52535;BME280;38443;53.164;5.802;2023-02-15T11:15:30;102658.25;;;5.71;100.00
52535;BME280;38443;53.164;5.802;2023-02-15T11:18:24;102666.38;;;5.80;100.00
52535;BME280;38443;53.164;5.802;2023-02-15T11:20:58;102658.50;;;5.84;100.00
52535;BME280;38443;53.164;5.802;2023-02-15T11:23:26;102651.44;;;5.87;100.00
52535;BME280;38443;53.164;5.802;2023-02-15T11:26:04;102656.00;;;5.93;100.00
52535;BME280;38443;53.164;5.802;2023-02-15T11:28:39;102651.75;;;6.01;100.00
52535;BME280;38443;53.164;5.802;2023-02-15T11:31:19;102652.00;;;6.13;100.00
52535;BME280;38443;53.164;5.802;2023-02-15T11:33:53;102641.47;;;6.19;100.00
52535;BME280;38443;53.164;5.802;2023-02-15T11:36:24;102644.22;;;6.26;100.00
52535;BME280;38443;53.164;5.802;2023-02-15T11:38:56;102642.63;;;6.35;100.00
52535;BME280;38443;53.164;5.802;2023-02-15T11:41:28;102632.09;;;6.43;100.00
52535;BME280;38443;53.164;5.802;2023-02-15T11:44:03;102623.38;;;6.50;100.00
52535;BME280;38443;53.164;5.802;2023-02-15T11:46:31;102617.28;;;6.57;100.00
52535;BME280;38443;53.164;5.802;2023-02-15T11:48:56;102603.97;;;6.57;100.00
52535;BME280;38443;53.164;5.802;2023-02-15T11:51:23;102609.34;;;6.61;100.00
52535;BME280;38443;53.164;5.802;2023-02-15T11:53:49;102602.19;;;6.56;100.00
52535;BME280;38443;53.164;5.802;2023-02-15T11:56:25;102594.25;;;6.59;100.00
52535;BME280;38443;53.164;5.802;2023-02-15T11:59:02;102605.84;;;6.65;100.00
52535;BME280;38443;53.164;5.802;2023-02-15T12:01:37;102599.66;;;6.66;100.00
52535;BME280;38443;53.164;5.802;2023-02-15T12:04:18;102597.00;;;6.67;100.00
52535;BME280;38443;53.164;5.802;2023-02-15T12:06:49;102588.19;;;6.71;100.00
52535;BME280;38443;53.164;5.802;2023-02-15T12:09:31;102581.16;;;6.75;100.00
52535;BME280;38443;53.164;5.802;2023-02-15T12:12:28;102574.97;;;6.76;100.00
52535;BME280;38443;53.164;5.802;2023-02-15T12:14:59;102575.94;;;6.81;100.00
52535;BME280;38443;53.164;5.802;2023-02-15T12:17:34;102572.38;;;6.81;100.00
52535;BME280;38443;53.164;5.802;2023-02-15T12:20:28;102569.78;;;6.85;100.00
52535;BME280;38443;53.164;5.802;2023-02-15T12:23:03;102559.22;;;6.90;100.00
52535;BME280;38443;53.164;5.802;2023-02-15T12:25:41;102553.03;;;6.95;100.00
52535;BME280;38443;53.164;5.802;2023-02-15T12:28:34;102545.16;;;7.03;100.00
52535;BME280;38443;53.164;5.802;2023-02-15T12:31:01;102547.88;;;7.06;100.00
52535;BME280;38443;53.164;5.802;2023-02-15T12:33:28;102538.16;;;7.11;100.00
52535;BME280;38443;53.164;5.802;2023-02-15T12:36:25;102536.47;;;7.16;100.00
52535;BME280;38443;53.164;5.802;2023-02-15T12:41:56;102537.41;;;7.20;100.00
52535;BME280;38443;53.164;5.802;2023-02-15T12:44:27;102525.03;;;7.24;100.00
52535;BME280;38443;53.164;5.802;2023-02-15T12:47:04;102533.00;;;7.25;100.00
52535;BME280;38443;53.164;5.802;2023-02-15T12:49:32;102533.91;;;7.24;100.00
52535;BME280;38443;53.164;5.802;2023-02-15T12:52:00;102538.31;;;7.22;100.00
52535;BME280;38443;53.164;5.802;2023-02-15T12:57:33;102536.47;;;7.16;100.00
52535;BME280;38443;53.164;5.802;2023-02-15T13:00:24;102543.50;;;7.13;100.00
52535;BME280;38443;53.164;5.802;2023-02-15T13:02:52;102547.06;;;7.13;100.00
52535;BME280;38443;53.164;5.802;2023-02-15T13:05:38;102549.72;;;7.12;100.00
52535;BME280;38443;53.164;5.802;2023-02-15T13:08:21;102536.41;;;7.12;100.00
52535;BME280;38443;53.164;5.802;2023-02-15T13:10:59;102537.31;;;7.12;100.00
52535;BME280;38443;53.164;5.802;2023-02-15T13:13:27;102524.03;;;7.17;100.00
52535;BME280;38443;53.164;5.802;2023-02-15T13:15:58;102533.84;;;7.21;100.00
52535;BME280;38443;53.164;5.802;2023-02-15T13:18:34;102529.44;;;7.23;100.00
52535;BME280;38443;53.164;5.802;2023-02-15T13:21:12;102532.13;;;7.25;100.00
52535;BME280;38443;53.164;5.802;2023-02-15T13:23:40;102525.03;;;7.27;100.00
52535;BME280;38443;53.164;5.802;2023-02-15T13:26:12;102522.41;;;7.28;100.00
52535;BME280;38443;53.164;5.802;2023-02-15T13:28:42;102533.97;;;7.30;100.00
52535;BME280;38443;53.164;5.802;2023-02-15T13:31:15;102526.88;;;7.32;100.00
52535;BME280;38443;53.164;5.802;2023-02-15T13:33:46;102515.38;;;7.35;100.00
52535;BME280;38443;53.164;5.802;2023-02-15T13:39:40;102508.31;;;7.38;100.00
52535;BME280;38443;53.164;5.802;2023-02-15T14:01:22;102503.84;;;7.37;100.00
52535;BME280;38443;53.164;5.802;2023-02-15T14:09:30;102479.03;;;7.42;100.00
52535;BME280;38443;53.164;5.802;2023-02-15T14:17:22;102471.91;;;7.41;100.00
52535;BME280;38443;53.164;5.802;2023-02-15T14:19:55;102464.81;;;7.41;100.00
52535;BME280;38443;53.164;5.802;2023-02-15T14:25:29;102463.06;;;7.43;100.00
52535;BME280;38443;53.164;5.802;2023-02-15T14:28:12;102471.94;;;7.44;100.00
52535;BME280;38443;53.164;5.802;2023-02-15T14:30:44;102470.22;;;7.46;100.00
52535;BME280;38443;53.164;5.802;2023-02-15T14:35:39;102465.78;;;7.46;100.00
52535;BME280;38443;53.164;5.802;2023-02-15T14:38:24;102464.88;;;7.47;100.00
52535;BME280;38443;53.164;5.802;2023-02-15T14:41:01;102467.56;;;7.49;100.00
52535;BME280;38443;53.164;5.802;2023-02-15T14:48:38;102465.72;;;7.43;100.00
52535;BME280;38443;53.164;5.802;2023-02-15T14:51:06;102462.19;;;7.43;100.00
52535;BME280;38443;53.164;5.802;2023-02-15T14:58:35;102442.56;;;7.34;100.00
52535;BME280;38443;53.164;5.802;2023-02-15T15:01:08;102437.22;;;7.33;100.00
52535;BME280;38443;53.164;5.802;2023-02-15T15:03:35;102437.22;;;7.33;100.00
52535;BME280;38443;53.164;5.802;2023-02-15T15:06:04;102438.09;;;7.30;100.00
52535;BME280;38443;53.164;5.802;2023-02-15T15:08:40;102430.91;;;7.23;100.00
52535;BME280;38443;53.164;5.802;2023-02-15T15:13:54;102428.13;;;7.11;100.00
52535;BME280;38443;53.164;5.802;2023-02-15T15:19:04;102434.22;;;7.01;100.00
52535;BME280;38443;53.164;5.802;2023-02-15T15:41:18;102429.19;;;6.53;100.00
52535;BME280;38443;53.164;5.802;2023-02-15T15:49:41;102427.25;;;6.38;100.00
52535;BME280;38443;53.164;5.802;2023-02-15T15:52:14;102428.91;;;6.30;100.00